Time;durP1;ratioP1;P1;durP2;ratioP2;P2;SDS_P1;SDS_P2;PMS_P1;PMS_P2;Temp;Humidity;BMP_temperature;BMP_pressure;BME280_temperature;BME280_humidity;BME280_pressure;Samples;Min_cycle;Max_cycle;Signal;HPM_P1;HPM_P2
2022/11/26 00:00:53;;;;;;;;;19.00;11.75;;;;;4.07;94.09;98966.56;4907073;28;102005;-72
2022/11/26 00:03:20;;;;;;;;;12.00;11.25;;;;;4.08;94.00;98968.25;4910893;28;103337;-72
2022/11/26 00:05:50;;;;;;;;;14.50;11.75;;;;;4.12;93.92;98971.47;4905759;28;102161;-72
2022/11/26 00:08:26;;;;;;;;;16.50;13.75;;;;;4.05;94.21;98952.50;4919291;28;102237;-73
2022/11/26 00:10:53;;;;;;;;;12.75;12.00;;;;;4.11;94.87;98967.94;4904252;28;102825;-72
2022/11/26 00:13:24;;;;;;;;;13.50;11.00;;;;;4.11;94.61;98972.44;4905289;28;103383;-73
2022/11/26 00:15:52;;;;;;;;;16.00;11.50;;;;;4.10;94.32;98984.16;4906951;28;103054;-72
2022/11/26 00:18:19;;;;;;;;;16.25;13.25;;;;;4.06;94.43;98986.28;4901946;28;102116;-72
2022/11/26 00:20:52;;;;;;;;;15.75;14.75;;;;;3.95;94.59;98959.75;4907038;28;101793;-72
2022/11/26 00:23:22;;;;;;;;;17.50;14.00;;;;;4.03;94.65;98975.88;4898768;28;103499;-72
2022/11/26 00:25:53;;;;;;;;;16.50;11.75;;;;;3.87;95.07;98948.97;4900561;28;102391;-72
2022/11/26 00:28:30;;;;;;;;;21.50;19.75;;;;;4.09;94.99;98991.34;4902440;28;101921;-72
2022/11/26 00:31:03;;;;;;;;;13.75;13.00;;;;;4.05;94.96;98989.97;4907526;28;101913;-72
2022/11/26 00:33:31;;;;;;;;;16.50;12.75;;;;;4.07;94.67;98992.47;4903831;28;103442;-73
2022/11/26 00:36:05;;;;;;;;;15.75;11.25;;;;;4.08;94.91;99000.34;4909470;28;101802;-72
2022/11/26 00:38:33;;;;;;;;;9.00;6.25;;;;;4.08;94.34;99000.34;4911339;28;102447;-72
2022/11/26 00:41:00;;;;;;;;;11.00;8.25;;;;;4.10;94.32;99002.88;4903140;28;101709;-72
2022/11/26 00:43:27;;;;;;;;;15.25;14.00;;;;;4.04;94.26;99001.66;4899445;28;103332;-72
2022/11/26 00:45:54;;;;;;;;;14.00;13.25;;;;;4.11;94.12;99018.78;4907975;28;102191;-72
2022/11/26 00:48:21;;;;;;;;;7.00;6.00;;;;;4.04;93.57;99009.69;4901352;28;102259;-72
2022/11/26 00:50:50;;;;;;;;;11.25;7.50;;;;;4.05;93.71;99014.84;4901374;28;102460;-72
2022/11/26 00:53:21;;;;;;;;;6.25;6.00;;;;;4.07;93.64;99022.75;4904440;28;103393;-74
2022/11/26 00:55:49;;;;;;;;;15.75;10.00;;;;;4.06;93.92;99021.06;4908268;28;101977;-74
2022/11/26 00:58:25;;;;;;;;;12.00;10.25;;;;;3.95;93.69;98997.19;4899488;28;101688;-73
2022/11/26 01:00:54;;;;;;;;;11.25;9.00;;;;;4.02;94.34;99017.00;4902387;28;101726;-74
2022/11/26 01:03:22;;;;;;;;;9.00;7.25;;;;;3.99;94.20;99011.97;4893131;28;103537;-74
2022/11/26 01:05:53;;;;;;;;;13.75;12.50;;;;;3.95;93.99;99010.56;4903727;28;103757;-74
2022/11/26 01:08:29;;;;;;;;;15.00;11.25;;;;;4.00;93.95;99019.84;4906833;28;101985;-74
2022/11/26 01:10:57;;;;;;;;;7.50;7.50;;;;;4.01;94.04;99017.97;4902824;28;101581;-74
2022/11/26 01:13:25;;;;;;;;;6.75;6.00;;;;;3.95;93.61;99022.13;4901435;28;103364;-74
2022/11/26 01:15:54;;;;;;;;;10.50;10.25;;;;;3.95;93.35;99026.63;4906843;28;101854;-72
2022/11/26 01:18:22;;;;;;;;;9.00;5.00;;;;;3.88;93.75;99015.66;4904396;28;101867;-73
2022/11/26 01:20:50;;;;;;;;;18.00;17.25;;;;;3.95;93.88;99037.31;4904845;28;102004;-72
2022/11/26 01:23:18;;;;;;;;;13.00;10.75;;;;;3.89;93.28;99037.91;4908704;28;103392;-72
2022/11/26 01:25:46;;;;;;;;;7.50;7.50;;;;;3.78;94.15;99008.69;4904472;28;101888;-72
2022/11/26 01:28:17;;;;;;;;;17.00;15.75;;;;;3.87;93.39;99029.22;4900924;28;103414;-72
2022/11/26 01:30:45;;;;;;;;;9.00;7.25;;;;;3.88;93.76;99036.22;4905553;28;102444;-72
2022/11/26 01:33:12;;;;;;;;;11.25;6.75;;;;;3.84;93.61;99034.81;4897273;28;103318;-72
2022/11/26 01:35:38;;;;;;;;;12.25;11.75;;;;;3.86;93.37;99038.22;4902761;28;102574;-71
2022/11/26 01:38:05;;;;;;;;;16.00;11.75;;;;;3.85;93.66;99047.22;4905061;28;101704;-72
2022/11/26 01:40:48;;;;;;;;;7.50;5.25;;;;;3.86;93.21;99038.22;4907871;28;101880;-72
2022/11/26 01:43:50;;;;;;;;;11.50;7.50;;;;;3.82;93.30;99032.31;4899302;28;107841;-72
2022/11/26 01:46:21;;;;;;;;;11.50;11.00;;;;;3.81;93.51;99032.47;4849268;28;102004;-73
2022/11/26 01:48:49;;;;;;;;;7.50;7.50;;;;;3.79;93.35;99032.59;4890096;28;102567;-72
2022/11/26 01:51:25;;;;;;;;;10.75;9.00;;;;;3.74;93.27;99024.19;4906297;28;101862;-73
2022/11/26 01:54:01;;;;;;;;;16.75;14.75;;;;;3.73;93.42;99037.72;4899588;28;103775;-73
2022/11/26 01:56:36;;;;;;;;;11.00;11.00;;;;;3.70;93.51;99038.84;4895662;28;101549;-72
2022/11/26 01:59:16;;;;;;;;;1.00;0.00;;;;;3.70;93.99;99038.00;4899488;28;101753;-72
2022/11/26 02:01:43;;;;;;;;;12.00;11.75;;;;;3.59;94.00;99026.50;4895676;28;101943;-72
2022/11/26 02:04:20;;;;;;;;;7.00;5.00;;;;;3.61;94.22;99026.34;4893444;28;103545;-71
2022/11/26 02:07:00;;;;;;;;;5.75;5.25;;;;;3.53;93.92;99024.41;4894064;28;101822;-73
2022/11/26 02:09:47;;;;;;;;;7.25;5.25;;;;;3.55;93.70;99025.13;4904424;28;101888;-73
2022/11/26 02:12:27;;;;;;;;;5.00;3.00;;;;;3.57;93.90;99041.84;4905023;28;102076;-73
2022/11/26 02:15:23;;;;;;;;;12.75;11.75;;;;;3.47;92.79;99033.00;4896163;28;107260;-74
2022/11/26 02:18:19;;;;;;;;;11.00;10.50;;;;;3.43;93.23;99028.94;4900113;28;101646;-74
2022/11/26 02:21:14;;;;;;;;;14.50;14.00;;;;;3.37;93.07;99026.03;4908797;28;101848;-74
2022/11/26 02:24:38;;;;;;;;;11.25;10.25;;;;;3.38;93.28;99036.53;4902064;28;101627;-72
2022/11/26 02:27:52;;;;;;;;;17.00;16.00;;;;;3.34;92.62;99040.50;4898600;28;106872;-71
2022/11/26 02:30:34;;;;;;;;;6.25;5.75;;;;;3.32;92.71;99050.50;4890576;28;101674;-72
2022/11/26 02:33:14;;;;;;;;;9.50;9.25;;;;;3.30;92.87;99041.78;4898665;28;101956;-72
2022/11/26 02:36:00;;;;;;;;;5.00;5.00;;;;;3.27;93.78;99052.78;4905506;28;101631;-71
2022/11/26 02:38:31;;;;;;;;;11.00;8.75;;;;;3.27;92.92;99051.91;4899841;28;103405;-72
2022/11/26 02:40:59;;;;;;;;;11.50;9.00;;;;;3.23;92.44;99043.34;4889544;28;103666;-72
2022/11/26 02:43:27;;;;;;;;;5.00;3.00;;;;;3.20;93.01;99045.47;4897150;28;101819;-72
2022/11/26 02:46:00;;;;;;;;;6.50;5.25;;;;;3.09;92.66;99035.78;4904049;28;101784;-72
2022/11/26 02:48:40;;;;;;;;;12.00;9.75;;;;;3.11;92.96;99052.50;4895699;28;103759;-72
2022/11/26 02:51:28;;;;;;;;;15.75;14.75;;;;;3.04;92.56;99046.06;4905099;28;101871;-72
2022/11/26 02:54:01;;;;;;;;;13.75;11.75;;;;;2.99;92.48;99049.16;4906199;28;102281;-72
2022/11/26 02:56:29;;;;;;;;;5.50;3.00;;;;;2.96;92.33;99053.94;4903584;28;101842;-72
2022/11/26 02:58:57;;;;;;;;;8.00;7.25;;;;;2.92;92.15;99049.88;4904264;28;103322;-71
2022/11/26 03:01:30;;;;;;;;;5.75;5.00;;;;;2.86;92.91;99058.44;4903589;28;101951;-72
2022/11/26 03:04:08;;;;;;;;;3.00;3.00;;;;;2.80;93.18;99056.31;4908136;28;101700;-72
2022/11/26 03:06:37;;;;;;;;;7.75;6.00;;;;;2.68;92.88;99037.78;4905512;28;101588;-72
2022/11/26 03:09:05;;;;;;;;;10.00;10.00;;;;;2.73;92.59;99063.22;4905588;28;107045;-72
2022/11/26 03:11:31;;;;;;;;;15.00;10.50;;;;;2.62;92.91;99048.19;4903224;28;102893;-72
2022/11/26 03:13:58;;;;;;;;;10.00;7.75;;;;;2.65;92.67;99070.13;4902484;28;102764;-72
2022/11/26 03:16:25;;;;;;;;;10.25;7.50;;;;;2.59;93.30;99056.47;4904273;28;101724;-72
2022/11/26 03:18:52;;;;;;;;;8.00;5.75;;;;;2.55;92.54;99050.56;4902261;28;103388;-72
2022/11/26 03:21:19;;;;;;;;;10.00;8.25;;;;;2.52;92.51;99050.03;4906242;28;101981;-72
2022/11/26 03:23:46;;;;;;;;;9.50;9.25;;;;;2.46;92.43;99048.75;4904547;28;101871;-72
2022/11/26 03:26:13;;;;;;;;;5.75;5.50;;;;;2.36;93.56;99044.38;4901685;28;101767;-72
2022/11/26 03:28:40;;;;;;;;;10.75;9.50;;;;;2.34;92.76;99046.34;4905720;28;103367;-71
2022/11/26 03:31:07;;;;;;;;;10.00;10.00;;;;;2.30;93.03;99053.75;4888377;28;101824;-72
2022/11/26 03:33:35;;;;;;;;;10.50;10.00;;;;;2.23;93.29;99058.81;4899918;28;101529;-71
2022/11/26 03:36:02;;;;;;;;;3.00;1.25;;;;;2.15;92.47;99052.47;4905306;28;101868;-72
2022/11/26 03:38:29;;;;;;;;;9.25;8.75;;;;;2.12;92.93;99058.06;4902385;28;103365;-72
2022/11/26 03:41:01;;;;;;;;;8.25;7.75;;;;;2.07;92.98;99058.47;4899515;28;101588;-72
2022/11/26 03:43:28;;;;;;;;;5.75;5.50;;;;;2.01;92.72;99061.72;4899577;28;101784;-72
2022/11/26 03:45:55;;;;;;;;;9.00;8.25;;;;;1.34;92.53;98955.72;4905501;28;102291;-72
2022/11/26 03:48:22;;;;;;;;;1.75;1.75;;;;;1.94;93.15;99070.38;4897921;28;103602;-72
2022/11/26 03:50:49;;;;;;;;;5.25;4.50;;;;;1.89;92.97;99078.78;4899373;28;101910;-72
2022/11/26 03:53:16;;;;;;;;;9.75;6.00;;;;;1.77;93.57;99062.03;4921402;28;101705;-72
2022/11/26 03:55:43;;;;;;;;;6.75;6.00;;;;;1.78;93.67;99071.72;4902583;28;101758;-71
2022/11/26 03:58:10;;;;;;;;;8.50;6.50;;;;;1.74;93.45;99070.31;4900912;28;102393;-71
2022/11/26 04:00:37;;;;;;;;;9.25;8.50;;;;;1.66;93.71;99067.47;4902230;28;101591;-72
2022/11/26 04:03:04;;;;;;;;;3.25;3.25;;;;;1.59;93.77;99071.63;4900109;28;102836;-72
2022/11/26 04:05:31;;;;;;;;;8.00;6.50;;;;;1.65;93.19;99087.13;4904835;28;101772;-72
2022/11/26 04:07:59;;;;;;;;;2.00;2.00;;;;;1.54;93.32;99078.34;4903293;28;103359;-71
2022/11/26 04:10:26;;;;;;;;;7.25;5.50;;;;;1.49;93.42;99076.06;4905703;28;101730;-72
2022/11/26 04:12:53;;;;;;;;;7.00;6.25;;;;;1.51;93.42;99092.78;4903603;28;101767;-72
2022/11/26 04:15:20;;;;;;;;;9.25;9.25;;;;;1.46;93.34;99092.34;4901327;28;101836;-72
2022/11/26 04:17:47;;;;;;;;;14.25;9.75;;;;;1.34;93.71;99091.56;4905668;28;103507;-72
2022/11/26 04:20:14;;;;;;;;;11.25;10.00;;;;;1.33;93.26;99111.19;4908376;28;102094;-71
2022/11/26 04:22:40;;;;;;;;;15.00;10.50;;;;;1.23;92.97;99106.75;4901320;28;101908;-71
2022/11/26 04:25:08;;;;;;;;;12.75;11.75;;;;;1.16;93.29;99105.59;4907767;28;101591;-72
2022/11/26 04:27:35;;;;;;;;;6.25;6.25;;;;;1.17;93.71;99112.63;4905800;28;108144;-72
2022/11/26 04:30:04;;;;;;;;;11.00;9.75;;;;;1.12;94.32;99113.03;4919975;28;101811;-72
2022/11/26 04:32:31;;;;;;;;;16.75;14.00;;;;;1.03;94.52;99107.63;4901788;28;101896;-72
2022/11/26 04:34:58;;;;;;;;;20.00;17.67;;;;;1.01;94.29;99120.19;4906904;28;102936;-72
2022/11/26 04:37:24;;;;;;;;;14.25;12.50;;;;;0.98;94.91;99112.47;4905929;28;103397;-72
2022/11/26 04:39:51;;;;;;;;;34.00;29.00;;;;;0.88;96.21;99110.59;4904891;28;102342;-72
2022/11/26 04:42:18;;;;;;;;;29.67;24.00;;;;;0.85;96.72;99102.00;4907280;28;101712;-72
2022/11/26 04:44:45;;;;;;;;;36.00;30.00;;;;;0.89;97.71;99116.75;4906778;28;101706;-72
2022/11/26 04:47:12;;;;;;;;;32.67;24.33;;;;;0.87;96.95;99122.19;4903924;28;103430;-72
2022/11/26 04:49:40;;;;;;;;;17.00;14.67;;;;;0.94;96.58;99121.69;4909212;28;102063;-71
2022/11/26 04:52:07;;;;;;;;;12.75;6.25;;;;;0.86;96.87;99117.00;4906862;28;101641;-72
2022/11/26 04:54:34;;;;;;;;;40.67;32.00;;;;;0.55;97.52;99081.44;4907036;28;101671;-72
2022/11/26 04:57:02;;;;;;;;;22.00;19.33;;;;;0.87;97.10;99135.50;4900075;28;102166;-72
2022/11/26 04:59:30;;;;;;;;;17.00;14.75;;;;;0.81;96.77;99130.69;4908951;28;102140;-72
2022/11/26 05:01:58;;;;;;;;;8.25;5.25;;;;;0.89;96.13;99143.38;4904045;28;101657;-72
2022/11/26 05:04:26;;;;;;;;;18.00;16.00;;;;;0.79;97.84;99132.63;4912158;28;101802;-72
2022/11/26 05:06:54;;;;;;;;;24.00;21.00;;;;;0.66;96.28;99129.31;4897712;28;103383;-72
2022/11/26 05:09:21;;;;;;;;;17.00;12.00;;;;;0.64;96.73;99131.22;4901797;28;101740;-72
2022/11/26 05:11:48;;;;;;;;;23.33;20.00;;;;;0.69;97.39;99144.16;4897501;28;101899;-72
2022/11/26 05:14:15;;;;;;;;;34.00;29.00;;;;;0.64;97.60;99123.25;4909802;28;102049;-72
2022/11/26 05:16:42;;;;;;;;;25.00;21.00;;;;;0.67;97.42;99146.97;4907687;28;103324;-72
2022/11/26 05:19:09;;;;;;;;;32.67;27.67;;;;;0.49;97.37;99121.84;4900562;28;101694;-71
2022/11/26 05:21:36;;;;;;;;;25.00;19.33;;;;;0.51;97.40;99116.41;4906956;28;101725;-72
2022/11/26 05:24:03;;;;;;;;;39.00;32.67;;;;;0.51;98.25;99135.00;4906507;28;101895;-72
2022/11/26 05:26:30;;;;;;;;;46.33;33.33;;;;;0.42;98.59;99131.28;4890424;28;103390;-72
2022/11/26 05:28:57;;;;;;;;;40.33;28.67;;;;;0.50;97.87;99136.81;4901237;28;101865;-72
2022/11/26 05:31:24;;;;;;;;;22.67;19.33;;;;;0.48;97.63;99125.47;4900311;28;101978;-72
2022/11/26 05:33:51;;;;;;;;;15.00;13.00;;;;;0.60;97.76;99140.44;4905902;28;101906;-72
2022/11/26 05:36:18;;;;;;;;;19.33;14.00;;;;;0.60;97.50;99134.25;4905029;28;103520;-72
2022/11/26 05:38:45;;;;;;;;;9.33;6.00;;;;;0.73;97.68;99154.44;4903631;28;101671;-72
2022/11/26 05:41:12;;;;;;;;;20.33;17.00;;;;;0.73;97.76;99154.44;4902339;28;101750;-72
2022/11/26 05:43:39;;;;;;;;;37.00;27.33;;;;;0.69;98.83;99153.00;4905960;28;103463;-71
2022/11/26 05:46:07;;;;;;;;;42.67;33.33;;;;;0.69;99.82;99157.47;4901134;28;107616;-72
2022/11/26 05:48:34;;;;;;;;;50.33;39.00;;;;;0.72;100.00;99171.34;4903919;28;101753;-72
2022/11/26 05:51:02;;;;;;;;;45.33;40.00;;;;;0.79;100.00;99177.88;4905854;28;102945;-72
2022/11/26 05:53:29;;;;;;;;;59.00;41.67;;;;;0.77;100.00;99171.84;4902918;28;103836;-71
2022/11/26 05:55:56;;;;;;;;;60.00;40.00;;;;;0.67;100.00;99165.59;4904890;28;103227;-74
2022/11/26 05:58:23;;;;;;;;;43.67;39.00;;;;;0.66;100.00;99155.06;4901058;28;101992;-74
2022/11/26 06:00:50;;;;;;;;;45.33;36.00;;;;;0.76;99.74;99178.16;4899366;28;101918;-71
2022/11/26 06:03:17;;;;;;;;;24.67;21.33;;;;;0.86;99.71;99187.03;4906878;28;102974;-73
2022/11/26 06:05:46;;;;;;;;;18.67;15.33;;;;;0.88;99.80;99174.47;4905759;28;103695;-72
2022/11/26 06:08:13;;;;;;;;;26.67;22.33;;;;;0.93;99.08;99191.88;4907060;28;102126;-72
2022/11/26 06:10:42;;;;;;;;;26.00;18.33;;;;;0.99;98.83;99192.19;4900720;28;101730;-72
2022/11/26 06:13:09;;;;;;;;;5.50;4.25;;;;;1.02;99.15;99188.47;4906189;28;101706;-73
2022/11/26 06:15:36;;;;;;;;;14.33;10.33;;;;;1.12;98.60;99194.72;4901152;28;107700;-73
2022/11/26 06:18:03;;;;;;;;;15.00;11.25;;;;;1.14;98.26;99200.75;4902205;28;102551;-72
2022/11/26 06:20:30;;;;;;;;;15.25;12.50;;;;;1.12;98.63;99205.38;4902635;28;101655;-73
2022/11/26 06:22:57;;;;;;;;;26.67;24.33;;;;;1.02;97.10;99199.09;4902917;28;101628;-72
2022/11/26 06:25:23;;;;;;;;;26.33;21.67;;;;;1.06;97.31;99211.19;4904822;28;103635;-74
2022/11/26 06:27:53;;;;;;;;;26.67;21.00;;;;;1.03;98.15;99195.47;4900854;28;101888;-72
2022/11/26 06:30:20;;;;;;;;;21.33;17.00;;;;;1.18;98.26;99216.34;4904790;28;102563;-72
2022/11/26 06:32:48;;;;;;;;;10.00;9.00;;;;;1.24;97.63;99204.34;4906730;28;102154;-72
2022/11/26 06:35:15;;;;;;;;;6.50;6.25;;;;;1.36;97.91;99213.97;4898045;28;103356;-72
2022/11/26 06:37:42;;;;;;;;;14.75;9.00;;;;;1.25;97.44;99195.38;4901486;28;101982;-72
2022/11/26 06:40:15;;;;;;;;;7.00;6.50;;;;;1.44;97.36;99211.50;4906170;28;102245;-72
2022/11/26 06:42:50;;;;;;;;;3.25;2.00;;;;;1.46;96.75;99214.91;4897021;28;102592;-70
2022/11/26 06:45:18;;;;;;;;;6.50;5.25;;;;;1.53;96.85;99218.72;4900315;28;103616;-72
2022/11/26 06:47:49;;;;;;;;;13.50;12.50;;;;;1.53;96.37;99216.06;4901801;28;101953;-74
2022/11/26 06:50:18;;;;;;;;;40.67;31.00;;;;;1.51;96.00;99217.19;4901624;28;101927;-71
2022/11/26 06:52:48;;;;;;;;;39.00;36.67;;;;;1.48;96.28;99228.94;4902812;28;101887;-71
2022/11/26 06:55:16;;;;;;;;;39.00;32.33;;;;;1.52;96.21;99214.38;4899568;28;103775;-72
2022/11/26 06:57:43;;;;;;;;;26.33;21.67;;;;;1.68;96.63;99228.09;4898479;28;101811;-71
2022/11/26 07:00:10;;;;;;;;;20.75;14.50;;;;;1.75;96.71;99221.28;4905221;28;101542;-71
2022/11/26 07:02:37;;;;;;;;;25.75;18.75;;;;;1.83;96.31;99228.63;4904820;28;101850;-72
2022/11/26 07:05:04;;;;;;;;;18.25;16.00;;;;;1.97;95.80;99235.44;4896626;28;107792;-73
2022/11/26 07:07:31;;;;;;;;;21.25;15.50;;;;;2.04;95.97;99232.13;4899605;28;102134;-72
2022/11/26 07:09:58;;;;;;;;;18.00;14.75;;;;;2.17;96.12;99234.56;4895785;28;102133;-74
2022/11/26 07:12:25;;;;;;;;;20.75;17.75;;;;;2.23;94.93;99242.91;4903212;28;102153;-74
2022/11/26 07:14:52;;;;;;;;;26.00;18.00;;;;;2.27;94.90;99231.94;4901253;28;103754;-74
2022/11/26 07:17:19;;;;;;;;;28.00;19.25;;;;;2.41;96.03;99234.25;4907455;28;110697;-73
2022/11/26 07:19:46;;;;;;;;;22.25;15.75;;;;;2.53;95.08;99254.53;4903642;28;102101;-74
2022/11/26 07:22:13;;;;;;;;;14.00;13.00;;;;;2.62;94.60;99249.22;4905259;28;101901;-73
2022/11/26 07:24:40;;;;;;;;;17.75;14.00;;;;;2.59;94.96;99233.50;4899116;28;103888;-72
2022/11/26 07:27:07;;;;;;;;;13.75;12.75;;;;;2.78;95.08;99251.41;4907269;28;101676;-73
2022/11/26 07:29:34;;;;;;;;;18.50;17.50;;;;;2.86;94.99;99256.91;4907683;28;102301;-73
2022/11/26 07:32:01;;;;;;;;;17.75;15.00;;;;;2.93;94.58;99254.50;4902389;28;102972;-73
2022/11/26 07:34:28;;;;;;;;;16.00;11.75;;;;;2.96;94.39;99244.44;4902043;28;103343;-73
2022/11/26 07:36:55;;;;;;;;;17.75;10.00;;;;;3.08;94.16;99250.47;4903947;28;101951;-73
2022/11/26 07:39:24;;;;;;;;;7.25;5.25;;;;;3.14;93.64;99260.63;4900627;28;101835;-73
2022/11/26 07:41:51;;;;;;;;;10.75;7.00;;;;;3.23;93.94;99258.94;4902108;28;101869;-73
2022/11/26 07:44:18;;;;;;;;;12.25;11.25;;;;;3.21;93.62;99253.75;4904436;28;103577;-73
2022/11/26 07:46:45;;;;;;;;;11.25;9.50;;;;;3.31;93.41;99267.97;4899910;28;102491;-72
2022/11/26 07:49:13;;;;;;;;;12.50;11.75;;;;;3.36;93.66;99262.19;4902541;28;102983;-73
2022/11/26 07:51:40;;;;;;;;;14.00;10.00;;;;;3.41;92.88;99263.47;4903611;28;101938;-72
2022/11/26 07:54:08;;;;;;;;;10.50;7.50;;;;;3.52;93.28;99268.66;4901143;28;103351;-73
2022/11/26 07:56:35;;;;;;;;;6.50;5.00;;;;;3.61;93.14;99275.00;4897326;28;103439;-73
2022/11/26 07:59:02;;;;;;;;;11.25;9.50;;;;;3.67;92.74;99271.78;4902973;28;101805;-73
2022/11/26 08:01:29;;;;;;;;;7.75;7.25;;;;;3.71;92.73;99261.63;4906772;28;102143;-72
2022/11/26 08:03:58;;;;;;;;;12.75;12.00;;;;;3.84;92.62;99275.56;4909785;28;103384;-73
2022/11/26 08:06:27;;;;;;;;;7.50;5.75;;;;;3.90;92.52;99277.69;4902923;28;102280;-74
2022/11/26 08:08:54;;;;;;;;;8.75;5.25;;;;;3.97;92.29;99295.69;4907877;28;101558;-73
2022/11/26 08:11:24;;;;;;;;;6.00;3.50;;;;;4.02;91.82;99289.91;4903291;28;102016;-73
2022/11/26 08:13:56;;;;;;;;;8.50;7.75;;;;;3.82;91.80;99254.31;4903535;28;103591;-73
2022/11/26 08:16:23;;;;;;;;;7.00;5.50;;;;;4.03;91.81;99286.25;4902539;28;102081;-72
2022/11/26 08:18:56;;;;;;;;;4.75;3.00;;;;;4.14;92.24;99287.94;4900600;28;102974;-73
2022/11/26 08:21:23;;;;;;;;;6.00;6.00;;;;;4.19;91.98;99286.50;4911016;28;101706;-73
2022/11/26 08:23:52;;;;;;;;;6.25;6.25;;;;;4.22;91.66;99299.59;4901052;28;103518;-73
2022/11/26 08:26:19;;;;;;;;;4.50;3.00;;;;;4.00;91.71;99254.44;4903662;28;102453;-73
2022/11/26 08:28:53;;;;;;;;;11.50;11.25;;;;;4.21;91.07;99291.72;4908974;28;101819;-73
2022/11/26 08:31:23;;;;;;;;;11.00;8.50;;;;;4.26;91.03;99292.13;4904104;28;103583;-73
2022/11/26 08:33:50;;;;;;;;;9.25;9.00;;;;;4.24;91.22;99286.06;4901309;28;103723;-73
2022/11/26 08:36:17;;;;;;;;;6.00;5.00;;;;;4.21;91.58;99283.69;4904965;28;101954;-73
2022/11/26 08:38:44;;;;;;;;;14.75;9.75;;;;;4.34;92.12;99290.41;4900584;28;101806;-73
2022/11/26 08:41:12;;;;;;;;;11.50;9.00;;;;;4.37;92.41;99298.16;4900079;28;102327;-72
2022/11/26 08:43:40;;;;;;;;;10.00;7.00;;;;;4.36;92.05;99306.34;4902514;28;103536;-73
2022/11/26 08:46:27;;;;;;;;;17.75;11.00;;;;;4.32;91.71;99303.09;4902511;28;101865;-73
2022/11/26 08:48:57;;;;;;;;;13.00;7.50;;;;;4.39;91.33;99304.22;4900829;28;101632;-72
2022/11/26 08:51:24;;;;;;;;;7.00;6.25;;;;;4.38;91.55;99309.69;4902079;28;101840;-73
2022/11/26 08:53:52;;;;;;;;;10.50;9.00;;;;;4.39;91.75;99316.75;4910871;28;103517;-72
2022/11/26 08:56:19;;;;;;;;;7.75;6.50;;;;;4.40;91.54;99311.25;4900079;28;102187;-73
2022/11/26 08:58:47;;;;;;;;;7.25;6.25;;;;;4.39;91.61;99314.91;4900245;28;101659;-73
2022/11/26 09:01:16;;;;;;;;;7.50;6.50;;;;;4.42;91.33;99327.16;4908797;28;101717;-73
2022/11/26 09:03:46;;;;;;;;;3.00;3.00;;;;;4.38;91.14;99323.94;4896568;28;103316;-72
2022/11/26 09:06:13;;;;;;;;;5.75;4.75;;;;;4.08;91.02;99278.63;4901114;28;101616;-72
2022/11/26 09:11:27;;;;;;;;;19.00;14.50;;;;;4.27;91.06;99334.81;4896520;28;102028;-72
2022/11/26 09:13:58;;;;;;;;;15.00;13.25;;;;;4.12;91.98;99304.13;4899900;28;103191;-72
2022/11/26 09:16:25;;;;;;;;;9.00;7.50;;;;;4.26;92.20;99327.78;4902403;28;102108;-73
2022/11/26 09:18:52;;;;;;;;;15.00;9.75;;;;;4.27;92.49;99332.16;4900458;28;101708;-73
2022/11/26 09:21:21;;;;;;;;;15.75;14.75;;;;;4.24;92.17;99332.41;4908094;28;101983;-73
2022/11/26 09:23:49;;;;;;;;;17.00;16.50;;;;;4.24;92.34;99336.91;4905304;28;103331;-73
2022/11/26 09:26:19;;;;;;;;;15.75;12.25;;;;;4.24;91.97;99343.13;4897205;28;102550;-73
2022/11/26 09:28:48;;;;;;;;;16.25;13.00;;;;;4.26;92.43;99340.31;4908452;28;103033;-74
2022/11/26 09:31:16;;;;;;;;;13.75;10.50;;;;;4.21;92.65;99338.06;4900560;28;102144;-73
2022/11/26 09:33:44;;;;;;;;;12.75;10.75;;;;;4.18;92.59;99327.66;4901587;28;103348;-73
2022/11/26 09:36:14;;;;;;;;;11.00;10.50;;;;;4.31;92.59;99338.06;4898092;28;101766;-73
2022/11/26 09:38:42;;;;;;;;;16.25;13.75;;;;;4.22;92.89;99333.56;4894857;28;101834;-71
2022/11/26 09:41:57;;;;;;;;;10.75;8.00;;;;;4.33;92.38;99338.72;4907216;28;103086;-73
2022/11/26 09:44:39;;;;;;;;;6.25;6.25;;;;;4.36;92.46;99343.81;4887574;28;107818;-73
2022/11/26 09:47:23;;;;;;;;;21.00;18.50;;;;;4.38;92.66;99345.34;4893476;28;101733;-74
2022/11/26 09:50:17;;;;;;;;;16.00;15.25;;;;;4.36;92.59;99342.00;4899510;28;102626;-73
2022/11/26 09:53:09;;;;;;;;;25.00;22.00;;;;;4.42;92.69;99345.91;4900814;28;102092;-74
2022/11/26 09:55:40;;;;;;;;;28.75;23.25;;;;;4.22;92.88;99294.25;4906452;28;107997;-73
2022/11/26 09:58:29;;;;;;;;;18.50;17.50;;;;;4.51;93.11;99345.03;4896606;28;101669;-73
2022/11/26 10:00:58;;;;;;;;;19.25;16.00;;;;;4.58;92.88;99342.63;4902189;28;102499;-72
2022/11/26 10:03:37;;;;;;;;;21.75;16.50;;;;;4.64;93.22;99337.53;4902275;28;101932;-72
2022/11/26 10:06:09;;;;;;;;;12.75;9.25;;;;;4.71;93.27;99335.13;4899318;28;103588;-73
2022/11/26 10:08:54;;;;;;;;;13.00;10.75;;;;;4.76;93.26;99339.06;4904948;28;101566;-72
2022/11/26 10:11:42;;;;;;;;;29.50;23.25;;;;;4.78;92.85;99334.38;4906497;28;101882;-72
2022/11/26 10:14:37;;;;;;;;;35.75;27.75;;;;;4.82;93.53;99337.59;4898185;28;101737;-73
2022/11/26 10:17:27;;;;;;;;;23.50;22.25;;;;;4.87;93.37;99336.19;4907110;28;108067;-73
2022/11/26 10:20:29;;;;;;;;;20.00;16.75;;;;;4.89;93.38;99336.06;4900290;28;101722;-73
2022/11/26 10:23:14;;;;;;;;;21.25;20.25;;;;;5.04;93.58;99339.09;4882610;28;105130;-73
2022/11/26 10:25:47;;;;;;;;;20.25;17.25;;;;;5.09;93.40;99332.28;4904843;28;102229;-72
2022/11/26 10:28:32;;;;;;;;;20.75;16.75;;;;;5.12;93.05;99334.69;4906492;28;103374;-72
2022/11/26 10:31:02;;;;;;;;;16.50;13.50;;;;;5.11;92.92;99327.63;4900072;28;101489;-73
2022/11/26 10:33:55;;;;;;;;;18.25;12.00;;;;;5.19;93.03;99329.56;4903812;28;101669;-73
2022/11/26 10:36:26;;;;;;;;;17.25;14.75;;;;;5.24;92.99;99338.84;4906395;28;101842;-72
2022/11/26 10:38:55;;;;;;;;;25.75;18.00;;;;;5.26;92.73;99336.88;4907835;28;103780;-73
2022/11/26 10:41:29;;;;;;;;;12.75;11.75;;;;;5.32;93.00;99332.72;4902097;28;101850;-72
2022/11/26 10:44:32;;;;;;;;;14.00;9.75;;;;;5.38;93.14;99341.03;4894985;28;102584;-72
2022/11/26 10:47:20;;;;;;;;;18.50;13.75;;;;;5.39;93.04;99331.16;4896546;28;102925;-72
2022/11/26 10:49:49;;;;;;;;;16.75;13.50;;;;;5.39;92.95;99329.31;4901032;28;107696;-73
2022/11/26 10:52:24;;;;;;;;;17.00;15.00;;;;;5.45;93.10;99329.72;4897702;28;101627;-74
2022/11/26 10:55:42;;;;;;;;;21.75;16.25;;;;;5.45;92.55;99332.38;4899306;28;101728;-73
2022/11/26 10:58:18;;;;;;;;;19.25;16.50;;;;;5.45;92.87;99321.66;4894007;28;101725;-72
2022/11/26 11:00:53;;;;;;;;;18.50;17.00;;;;;5.47;93.03;99319.66;4915613;28;109402;-72
2022/11/26 11:03:28;;;;;;;;;23.75;18.00;;;;;5.48;92.81;99326.72;4899677;28;101865;-73
2022/11/26 11:06:17;;;;;;;;;21.00;17.25;;;;;5.49;93.20;99320.38;4910729;28;101341;-73
2022/11/26 11:08:54;;;;;;;;;16.75;16.00;;;;;5.52;93.05;99320.03;4903974;28;101740;-72
2022/11/26 11:11:24;;;;;;;;;13.50;12.25;;;;;5.53;93.23;99322.59;4901259;28;103394;-72
2022/11/26 11:13:52;;;;;;;;;19.00;15.00;;;;;5.49;93.09;99315.84;4895207;28;101440;-72
2022/11/26 11:16:29;;;;;;;;;19.50;16.00;;;;;5.51;93.55;99313.00;4892052;28;101927;-72
2022/11/26 11:19:03;;;;;;;;;16.00;13.00;;;;;5.57;93.35;99318.59;4890645;28;101612;-73
2022/11/26 11:21:34;;;;;;;;;13.25;11.00;;;;;5.54;93.18;99318.88;4899823;28;103379;-73
2022/11/26 11:24:13;;;;;;;;;19.50;15.25;;;;;5.58;93.24;99328.34;4901734;28;101638;-72
2022/11/26 11:26:43;;;;;;;;;12.50;12.00;;;;;5.57;92.85;99329.34;4904935;28;110426;-73
2022/11/26 11:29:28;;;;;;;;;21.50;20.75;;;;;5.58;93.46;99335.56;4910309;28;101578;-73
2022/11/26 11:31:56;;;;;;;;;16.00;13.50;;;;;5.57;93.51;99329.34;4904624;28;108080;-73
2022/11/26 11:34:41;;;;;;;;;17.25;13.50;;;;;5.61;93.54;99335.22;4897024;28;101820;-73
2022/11/26 11:37:16;;;;;;;;;16.00;13.25;;;;;5.61;93.18;99333.41;4894749;28;102894;-72
2022/11/26 11:39:43;;;;;;;;;23.00;19.00;;;;;5.55;93.60;99336.69;4907953;28;102626;-72
2022/11/26 11:42:22;;;;;;;;;37.50;34.25;;;;;5.34;94.17;99334.28;4904950;28;107748;-72
2022/11/26 11:44:51;;;;;;;;;43.00;29.50;;;;;5.42;94.60;99340.72;4903385;28;101689;-73